sensor_id;sensor_type;location;lat;lon;timestamp;temperature;humidity
64654;DHT22;51065;48.884;12.598;2023-04-25T00:02:23;7.20;99.90
64654;DHT22;51065;48.884;12.598;2023-04-25T00:04:48;7.20;99.90
64654;DHT22;51065;48.884;12.598;2023-04-25T00:07:14;7.20;99.90
64654;DHT22;51065;48.884;12.598;2023-04-25T00:09:39;7.30;99.90
64654;DHT22;51065;48.884;12.598;2023-04-25T00:12:06;7.30;99.90
64654;DHT22;51065;48.884;12.598;2023-04-25T00:14:31;7.30;99.90
64654;DHT22;51065;48.884;12.598;2023-04-25T00:16:59;7.20;99.90
64654;DHT22;51065;48.884;12.598;2023-04-25T00:19:25;7.20;99.90
64654;DHT22;51065;48.884;12.598;2023-04-25T00:21:52;7.20;99.90
64654;DHT22;51065;48.884;12.598;2023-04-25T00:24:19;7.10;99.90
64654;DHT22;51065;48.884;12.598;2023-04-25T00:26:44;7.10;99.90
64654;DHT22;51065;48.884;12.598;2023-04-25T00:29:10;7.10;99.90
64654;DHT22;51065;48.884;12.598;2023-04-25T00:31:36;7.00;99.90
64654;DHT22;51065;48.884;12.598;2023-04-25T00:34:01;6.90;99.90
64654;DHT22;51065;48.884;12.598;2023-04-25T00:36:27;6.80;99.90
64654;DHT22;51065;48.884;12.598;2023-04-25T00:38:53;6.70;99.90
64654;DHT22;51065;48.884;12.598;2023-04-25T00:41:20;6.70;99.90
64654;DHT22;51065;48.884;12.598;2023-04-25T00:43:46;6.70;99.90
64654;DHT22;51065;48.884;12.598;2023-04-25T00:46:13;6.70;99.90
64654;DHT22;51065;48.884;12.598;2023-04-25T00:48:38;6.80;99.90
64654;DHT22;51065;48.884;12.598;2023-04-25T00:51:04;6.90;99.90
64654;DHT22;51065;48.884;12.598;2023-04-25T00:53:30;7.00;99.90
64654;DHT22;51065;48.884;12.598;2023-04-25T00:55:57;7.00;99.90
64654;DHT22;51065;48.884;12.598;2023-04-25T00:58:24;7.00;99.90
64654;DHT22;51065;48.884;12.598;2023-04-25T01:00:51;6.90;99.90
64654;DHT22;51065;48.884;12.598;2023-04-25T01:03:19;6.90;99.90
64654;DHT22;51065;48.884;12.598;2023-04-25T01:05:46;6.80;99.90
64654;DHT22;51065;48.884;12.598;2023-04-25T01:08:12;6.80;99.90
64654;DHT22;51065;48.884;12.598;2023-04-25T01:10:38;6.70;99.90
64654;DHT22;51065;48.884;12.598;2023-04-25T01:13:04;6.70;99.90
64654;DHT22;51065;48.884;12.598;2023-04-25T01:15:29;6.70;99.90
64654;DHT22;51065;48.884;12.598;2023-04-25T01:17:55;6.60;99.90
64654;DHT22;51065;48.884;12.598;2023-04-25T01:20:22;6.60;99.90
64654;DHT22;51065;48.884;12.598;2023-04-25T01:22:48;6.60;99.90
64654;DHT22;51065;48.884;12.598;2023-04-25T01:25:15;6.60;99.90
64654;DHT22;51065;48.884;12.598;2023-04-25T01:27:41;6.60;99.90
64654;DHT22;51065;48.884;12.598;2023-04-25T01:30:07;6.70;99.90
64654;DHT22;51065;48.884;12.598;2023-04-25T01:32:33;6.70;99.90
64654;DHT22;51065;48.884;12.598;2023-04-25T01:35:09;6.80;99.90
64654;DHT22;51065;48.884;12.598;2023-04-25T01:37:41;6.80;99.90
64654;DHT22;51065;48.884;12.598;2023-04-25T01:40:09;6.80;99.90
64654;DHT22;51065;48.884;12.598;2023-04-25T01:42:37;6.80;99.90
64654;DHT22;51065;48.884;12.598;2023-04-25T01:45:03;6.80;99.90
64654;DHT22;51065;48.884;12.598;2023-04-25T01:47:29;6.70;99.90
64654;DHT22;51065;48.884;12.598;2023-04-25T01:49:55;6.70;99.90
64654;DHT22;51065;48.884;12.598;2023-04-25T01:52:20;6.70;99.90
64654;DHT22;51065;48.884;12.598;2023-04-25T01:54:47;6.70;99.90
64654;DHT22;51065;48.884;12.598;2023-04-25T01:57:13;6.70;99.90
64654;DHT22;51065;48.884;12.598;2023-04-25T01:59:39;6.70;99.90
64654;DHT22;51065;48.884;12.598;2023-04-25T02:02:06;6.70;99.90
64654;DHT22;51065;48.884;12.598;2023-04-25T02:04:31;6.80;99.90
64654;DHT22;51065;48.884;12.598;2023-04-25T02:06:57;6.80;99.90
64654;DHT22;51065;48.884;12.598;2023-04-25T02:09:23;6.90;99.90
64654;DHT22;51065;48.884;12.598;2023-04-25T02:11:48;6.90;99.90
64654;DHT22;51065;48.884;12.598;2023-04-25T02:14:14;6.90;99.90
64654;DHT22;51065;48.884;12.598;2023-04-25T02:16:40;6.90;99.90
64654;DHT22;51065;48.884;12.598;2023-04-25T02:19:05;6.90;99.90
64654;DHT22;51065;48.884;12.598;2023-04-25T02:21:32;6.90;99.90
64654;DHT22;51065;48.884;12.598;2023-04-25T02:23:57;6.90;99.90
64654;DHT22;51065;48.884;12.598;2023-04-25T02:26:23;6.90;99.90
64654;DHT22;51065;48.884;12.598;2023-04-25T02:28:49;6.90;99.90
64654;DHT22;51065;48.884;12.598;2023-04-25T02:31:15;6.90;99.90
64654;DHT22;51065;48.884;12.598;2023-04-25T02:33:41;6.80;99.90
64654;DHT22;51065;48.884;12.598;2023-04-25T02:36:07;6.80;99.90
64654;DHT22;51065;48.884;12.598;2023-04-25T02:38:33;6.80;99.90
64654;DHT22;51065;48.884;12.598;2023-04-25T02:40:58;6.70;99.90
64654;DHT22;51065;48.884;12.598;2023-04-25T02:43:24;6.70;99.90
64654;DHT22;51065;48.884;12.598;2023-04-25T02:45:49;6.70;99.90
64654;DHT22;51065;48.884;12.598;2023-04-25T02:48:15;6.70;99.90
64654;DHT22;51065;48.884;12.598;2023-04-25T02:50:41;6.70;99.90
64654;DHT22;51065;48.884;12.598;2023-04-25T02:53:06;6.60;99.90
64654;DHT22;51065;48.884;12.598;2023-04-25T02:55:32;6.60;99.90
64654;DHT22;51065;48.884;12.598;2023-04-25T02:57:57;6.50;99.90
64654;DHT22;51065;48.884;12.598;2023-04-25T03:00:23;6.50;99.90
64654;DHT22;51065;48.884;12.598;2023-04-25T03:02:48;6.50;99.90
64654;DHT22;51065;48.884;12.598;2023-04-25T03:05:14;6.50;99.90
64654;DHT22;51065;48.884;12.598;2023-04-25T03:07:39;6.50;99.90
64654;DHT22;51065;48.884;12.598;2023-04-25T03:10:08;6.50;99.90
64654;DHT22;51065;48.884;12.598;2023-04-25T03:12:34;6.50;99.90
64654;DHT22;51065;48.884;12.598;2023-04-25T03:15:00;6.50;99.90
64654;DHT22;51065;48.884;12.598;2023-04-25T03:17:25;6.50;99.90
64654;DHT22;51065;48.884;12.598;2023-04-25T03:19:51;6.40;99.90
64654;DHT22;51065;48.884;12.598;2023-04-25T03:22:16;6.50;99.90
64654;DHT22;51065;48.884;12.598;2023-04-25T03:24:42;6.40;99.90
64654;DHT22;51065;48.884;12.598;2023-04-25T03:27:07;6.50;99.90
64654;DHT22;51065;48.884;12.598;2023-04-25T03:29:33;6.40;99.90
64654;DHT22;51065;48.884;12.598;2023-04-25T03:31:58;6.40;99.90
64654;DHT22;51065;48.884;12.598;2023-04-25T03:34:24;6.50;99.90
64654;DHT22;51065;48.884;12.598;2023-04-25T03:36:51;6.50;99.90
64654;DHT22;51065;48.884;12.598;2023-04-25T03:39:16;6.50;99.90
64654;DHT22;51065;48.884;12.598;2023-04-25T03:41:42;6.40;99.90
64654;DHT22;51065;48.884;12.598;2023-04-25T03:44:08;6.40;99.90
64654;DHT22;51065;48.884;12.598;2023-04-25T03:46:33;6.40;99.90
64654;DHT22;51065;48.884;12.598;2023-04-25T03:48:59;6.50;99.90
64654;DHT22;51065;48.884;12.598;2023-04-25T03:51:25;6.50;99.90
64654;DHT22;51065;48.884;12.598;2023-04-25T03:53:51;6.60;99.90
64654;DHT22;51065;48.884;12.598;2023-04-25T03:56:17;6.60;99.90
64654;DHT22;51065;48.884;12.598;2023-04-25T03:58:43;6.60;99.90
64654;DHT22;51065;48.884;12.598;2023-04-25T04:01:09;6.60;99.90
64654;DHT22;51065;48.884;12.598;2023-04-25T04:03:35;6.60;99.90
64654;DHT22;51065;48.884;12.598;2023-04-25T04:06:04;6.70;99.90
64654;DHT22;51065;48.884;12.598;2023-04-25T04:08:31;6.70;99.90
64654;DHT22;51065;48.884;12.598;2023-04-25T04:10:57;6.70;99.90
64654;DHT22;51065;48.884;12.598;2023-04-25T04:13:25;6.70;99.90
64654;DHT22;51065;48.884;12.598;2023-04-25T04:15:51;6.80;99.90
64654;DHT22;51065;48.884;12.598;2023-04-25T04:18:17;6.80;99.90
64654;DHT22;51065;48.884;12.598;2023-04-25T04:20:42;6.80;99.90
64654;DHT22;51065;48.884;12.598;2023-04-25T04:23:08;6.80;99.90
64654;DHT22;51065;48.884;12.598;2023-04-25T04:25:33;6.80;99.90
64654;DHT22;51065;48.884;12.598;2023-04-25T04:27:59;6.80;99.90
64654;DHT22;51065;48.884;12.598;2023-04-25T04:30:26;6.80;99.90
64654;DHT22;51065;48.884;12.598;2023-04-25T04:32:55;6.80;99.90
64654;DHT22;51065;48.884;12.598;2023-04-25T04:35:21;6.80;99.90
64654;DHT22;51065;48.884;12.598;2023-04-25T04:37:47;6.90;99.90
64654;DHT22;51065;48.884;12.598;2023-04-25T04:40:13;6.90;99.90
64654;DHT22;51065;48.884;12.598;2023-04-25T04:42:41;6.90;99.90
64654;DHT22;51065;48.884;12.598;2023-04-25T04:45:07;6.90;99.90
64654;DHT22;51065;48.884;12.598;2023-04-25T04:47:32;6.90;99.90
64654;DHT22;51065;48.884;12.598;2023-04-25T04:49:59;6.90;99.90
64654;DHT22;51065;48.884;12.598;2023-04-25T04:52:24;7.00;99.90
64654;DHT22;51065;48.884;12.598;2023-04-25T04:54:50;7.10;99.90
64654;DHT22;51065;48.884;12.598;2023-04-25T04:57:16;7.20;99.90
64654;DHT22;51065;48.884;12.598;2023-04-25T04:59:42;7.30;99.90
64654;DHT22;51065;48.884;12.598;2023-04-25T05:02:07;7.40;99.90
64654;DHT22;51065;48.884;12.598;2023-04-25T05:04:33;7.50;99.90
64654;DHT22;51065;48.884;12.598;2023-04-25T05:06:58;7.60;99.90
64654;DHT22;51065;48.884;12.598;2023-04-25T05:09:24;7.70;99.90
64654;DHT22;51065;48.884;12.598;2023-04-25T05:11:51;7.90;99.90
64654;DHT22;51065;48.884;12.598;2023-04-25T05:14:17;7.90;99.90
64654;DHT22;51065;48.884;12.598;2023-04-25T05:16:43;7.90;99.90
64654;DHT22;51065;48.884;12.598;2023-04-25T05:19:09;7.90;99.90
64654;DHT22;51065;48.884;12.598;2023-04-25T05:21:35;7.90;99.90
64654;DHT22;51065;48.884;12.598;2023-04-25T05:24:01;7.90;99.90
64654;DHT22;51065;48.884;12.598;2023-04-25T05:26:26;7.90;99.90
64654;DHT22;51065;48.884;12.598;2023-04-25T05:28:58;7.90;99.90
64654;DHT22;51065;48.884;12.598;2023-04-25T05:31:25;7.90;99.90
64654;DHT22;51065;48.884;12.598;2023-04-25T05:33:51;7.90;99.90
64654;DHT22;51065;48.884;12.598;2023-04-25T05:36:18;8.00;99.90
64654;DHT22;51065;48.884;12.598;2023-04-25T05:38:43;8.10;99.90
64654;DHT22;51065;48.884;12.598;2023-04-25T05:41:09;8.10;99.90
64654;DHT22;51065;48.884;12.598;2023-04-25T05:43:34;8.20;99.90
64654;DHT22;51065;48.884;12.598;2023-04-25T05:46:00;8.30;99.90
64654;DHT22;51065;48.884;12.598;2023-04-25T05:48:26;8.20;99.90
64654;DHT22;51065;48.884;12.598;2023-04-25T05:50:51;8.00;99.90
64654;DHT22;51065;48.884;12.598;2023-04-25T05:53:18;7.80;99.90
64654;DHT22;51065;48.884;12.598;2023-04-25T05:55:43;7.70;99.90
64654;DHT22;51065;48.884;12.598;2023-04-25T05:58:09;7.60;99.90
64654;DHT22;51065;48.884;12.598;2023-04-25T06:00:35;7.50;99.90
64654;DHT22;51065;48.884;12.598;2023-04-25T06:03:00;7.50;99.90
64654;DHT22;51065;48.884;12.598;2023-04-25T06:05:26;7.50;99.90
64654;DHT22;51065;48.884;12.598;2023-04-25T06:07:52;7.60;99.90
64654;DHT22;51065;48.884;12.598;2023-04-25T06:10:17;8.00;99.90
64654;DHT22;51065;48.884;12.598;2023-04-25T06:12:43;8.90;99.90
64654;DHT22;51065;48.884;12.598;2023-04-25T06:15:09;9.80;99.90
64654;DHT22;51065;48.884;12.598;2023-04-25T06:17:35;10.00;99.90
64654;DHT22;51065;48.884;12.598;2023-04-25T06:20:01;10.00;99.90
64654;DHT22;51065;48.884;12.598;2023-04-25T06:22:27;10.10;99.90
64654;DHT22;51065;48.884;12.598;2023-04-25T06:24:52;10.50;99.90
64654;DHT22;51065;48.884;12.598;2023-04-25T06:27:18;10.80;99.90
64654;DHT22;51065;48.884;12.598;2023-04-25T06:29:43;11.20;99.90
64654;DHT22;51065;48.884;12.598;2023-04-25T06:32:09;10.80;99.90
64654;DHT22;51065;48.884;12.598;2023-04-25T06:34:35;10.60;99.90
64654;DHT22;51065;48.884;12.598;2023-04-25T06:37:00;10.20;99.90
64654;DHT22;51065;48.884;12.598;2023-04-25T06:39:26;9.90;99.90
64654;DHT22;51065;48.884;12.598;2023-04-25T06:41:51;9.70;99.90
64654;DHT22;51065;48.884;12.598;2023-04-25T06:44:17;9.70;99.90
64654;DHT22;51065;48.884;12.598;2023-04-25T06:46:43;9.70;99.90
64654;DHT22;51065;48.884;12.598;2023-04-25T06:49:08;9.80;99.90
64654;DHT22;51065;48.884;12.598;2023-04-25T06:51:34;9.80;99.90
64654;DHT22;51065;48.884;12.598;2023-04-25T06:53:59;9.80;99.90
64654;DHT22;51065;48.884;12.598;2023-04-25T06:56:25;9.70;99.90
64654;DHT22;51065;48.884;12.598;2023-04-25T06:58:50;9.80;99.90
64654;DHT22;51065;48.884;12.598;2023-04-25T07:01:16;10.00;99.90
64654;DHT22;51065;48.884;12.598;2023-04-25T07:03:42;10.50;99.90
64654;DHT22;51065;48.884;12.598;2023-04-25T07:06:07;10.80;99.90
64654;DHT22;51065;48.884;12.598;2023-04-25T07:08:33;10.80;99.90
64654;DHT22;51065;48.884;12.598;2023-04-25T07:10:58;11.00;99.90
64654;DHT22;51065;48.884;12.598;2023-04-25T07:13:24;11.20;99.90
64654;DHT22;51065;48.884;12.598;2023-04-25T07:15:49;11.30;99.90
64654;DHT22;51065;48.884;12.598;2023-04-25T07:18:15;11.30;99.90
64654;DHT22;51065;48.884;12.598;2023-04-25T07:20:41;11.60;99.90
64654;DHT22;51065;48.884;12.598;2023-04-25T07:23:06;11.90;99.20
64654;DHT22;51065;48.884;12.598;2023-04-25T07:25:32;12.70;97.70
64654;DHT22;51065;48.884;12.598;2023-04-25T07:27:58;13.60;93.80
64654;DHT22;51065;48.884;12.598;2023-04-25T07:30:23;14.00;90.50
64654;DHT22;51065;48.884;12.598;2023-04-25T07:32:49;14.70;90.60
64654;DHT22;51065;48.884;12.598;2023-04-25T07:35:16;14.60;72.40
64654;DHT22;51065;48.884;12.598;2023-04-25T07:37:42;14.80;77.00
64654;DHT22;51065;48.884;12.598;2023-04-25T07:40:08;15.40;69.60
64654;DHT22;51065;48.884;12.598;2023-04-25T07:42:34;15.40;62.20
64654;DHT22;51065;48.884;12.598;2023-04-25T07:45:00;14.80;65.80
64654;DHT22;51065;48.884;12.598;2023-04-25T07:47:26;15.50;73.80
64654;DHT22;51065;48.884;12.598;2023-04-25T07:49:52;15.50;63.90
64654;DHT22;51065;48.884;12.598;2023-04-25T07:52:17;15.50;65.00
64654;DHT22;51065;48.884;12.598;2023-04-25T07:54:43;14.90;69.90
64654;DHT22;51065;48.884;12.598;2023-04-25T07:57:08;14.50;67.10
64654;DHT22;51065;48.884;12.598;2023-04-25T07:59:34;13.90;65.60
64654;DHT22;51065;48.884;12.598;2023-04-25T08:02:00;13.50;66.60
64654;DHT22;51065;48.884;12.598;2023-04-25T08:04:26;13.00;72.70
64654;DHT22;51065;48.884;12.598;2023-04-25T08:06:52;12.30;81.10
64654;DHT22;51065;48.884;12.598;2023-04-25T08:09:20;12.20;83.70
64654;DHT22;51065;48.884;12.598;2023-04-25T08:11:46;12.20;79.30
64654;DHT22;51065;48.884;12.598;2023-04-25T08:14:13;12.10;86.80
64654;DHT22;51065;48.884;12.598;2023-04-25T08:16:39;12.50;82.70
64654;DHT22;51065;48.884;12.598;2023-04-25T08:19:05;12.90;78.10
64654;DHT22;51065;48.884;12.598;2023-04-25T08:21:31;13.50;70.90
64654;DHT22;51065;48.884;12.598;2023-04-25T08:23:57;14.50;66.20
64654;DHT22;51065;48.884;12.598;2023-04-25T08:26:24;14.70;62.50
64654;DHT22;51065;48.884;12.598;2023-04-25T08:28:50;15.40;65.20
64654;DHT22;51065;48.884;12.598;2023-04-25T08:31:16;16.10;62.60
64654;DHT22;51065;48.884;12.598;2023-04-25T08:33:42;15.60;58.20
64654;DHT22;51065;48.884;12.598;2023-04-25T08:36:07;15.60;61.00
64654;DHT22;51065;48.884;12.598;2023-04-25T08:38:33;15.70;58.40
64654;DHT22;51065;48.884;12.598;2023-04-25T08:41:00;15.10;59.30
64654;DHT22;51065;48.884;12.598;2023-04-25T08:43:26;14.70;62.70
64654;DHT22;51065;48.884;12.598;2023-04-25T08:45:54;14.10;64.30
64654;DHT22;51065;48.884;12.598;2023-04-25T08:48:24;13.40;67.90
64654;DHT22;51065;48.884;12.598;2023-04-25T08:50:54;12.50;77.40
64654;DHT22;51065;48.884;12.598;2023-04-25T08:53:25;12.50;85.60
64654;DHT22;51065;48.884;12.598;2023-04-25T08:55:53;12.10;90.80
64654;DHT22;51065;48.884;12.598;2023-04-25T08:58:19;11.80;93.40
64654;DHT22;51065;48.884;12.598;2023-04-25T09:00:50;11.60;90.10
64654;DHT22;51065;48.884;12.598;2023-04-25T09:03:16;11.50;86.90
64654;DHT22;51065;48.884;12.598;2023-04-25T09:05:42;11.30;90.60
64654;DHT22;51065;48.884;12.598;2023-04-25T09:08:08;11.30;90.80
64654;DHT22;51065;48.884;12.598;2023-04-25T09:10:34;11.30;92.00
64654;DHT22;51065;48.884;12.598;2023-04-25T09:15:29;12.00;88.60
64654;DHT22;51065;48.884;12.598;2023-04-25T09:17:58;13.00;83.00
64654;DHT22;51065;48.884;12.598;2023-04-25T09:20:23;14.00;71.10
64654;DHT22;51065;48.884;12.598;2023-04-25T09:23:01;14.50;63.70
64654;DHT22;51065;48.884;12.598;2023-04-25T09:25:37;14.40;63.00
64654;DHT22;51065;48.884;12.598;2023-04-25T09:28:06;15.40;60.40
64654;DHT22;51065;48.884;12.598;2023-04-25T09:30:34;16.00;59.60
64654;DHT22;51065;48.884;12.598;2023-04-25T09:33:07;16.80;55.20
64654;DHT22;51065;48.884;12.598;2023-04-25T09:35:44;16.90;53.80
64654;DHT22;51065;48.884;12.598;2023-04-25T09:38:14;17.00;52.70
64654;DHT22;51065;48.884;12.598;2023-04-25T09:40:45;17.60;53.40
64654;DHT22;51065;48.884;12.598;2023-04-25T09:43:22;17.00;52.90
64654;DHT22;51065;48.884;12.598;2023-04-25T09:45:48;17.30;55.30
64654;DHT22;51065;48.884;12.598;2023-04-25T09:48:21;17.30;53.20
64654;DHT22;51065;48.884;12.598;2023-04-25T09:51:07;16.20;54.60
64654;DHT22;51065;48.884;12.598;2023-04-25T09:53:37;15.70;59.10
64654;DHT22;51065;48.884;12.598;2023-04-25T09:56:05;14.80;58.50
64654;DHT22;51065;48.884;12.598;2023-04-25T09:58:32;14.00;62.40
64654;DHT22;51065;48.884;12.598;2023-04-25T10:01:06;13.30;68.00
64654;DHT22;51065;48.884;12.598;2023-04-25T10:03:33;12.50;77.10
64654;DHT22;51065;48.884;12.598;2023-04-25T10:06:01;12.00;80.60
64654;DHT22;51065;48.884;12.598;2023-04-25T10:08:35;11.80;84.90
64654;DHT22;51065;48.884;12.598;2023-04-25T10:11:03;11.50;97.60
64654;DHT22;51065;48.884;12.598;2023-04-25T10:13:31;10.80;99.90
64654;DHT22;51065;48.884;12.598;2023-04-25T10:16:02;10.10;99.90
64654;DHT22;51065;48.884;12.598;2023-04-25T10:18:29;9.70;99.90
64654;DHT22;51065;48.884;12.598;2023-04-25T10:20:57;9.60;99.90
64654;DHT22;51065;48.884;12.598;2023-04-25T10:23:23;9.40;99.90
64654;DHT22;51065;48.884;12.598;2023-04-25T10:25:50;9.60;99.90
64654;DHT22;51065;48.884;12.598;2023-04-25T10:28:17;9.90;99.90
64654;DHT22;51065;48.884;12.598;2023-04-25T10:33:40;12.00;99.90
64654;DHT22;51065;48.884;12.598;2023-04-25T10:38:39;12.60;95.80
64654;DHT22;51065;48.884;12.598;2023-04-25T10:41:06;12.20;97.30
64654;DHT22;51065;48.884;12.598;2023-04-25T10:43:34;11.80;96.30
64654;DHT22;51065;48.884;12.598;2023-04-25T10:46:01;12.00;97.00
64654;DHT22;51065;48.884;12.598;2023-04-25T10:48:28;13.20;96.00
64654;DHT22;51065;48.884;12.598;2023-04-25T10:51:26;14.70;90.90
64654;DHT22;51065;48.884;12.598;2023-04-25T10:56:23;14.60;73.80
64654;DHT22;51065;48.884;12.598;2023-04-25T10:58:50;13.90;82.60
64654;DHT22;51065;48.884;12.598;2023-04-25T11:01:20;13.20;85.30
64654;DHT22;51065;48.884;12.598;2023-04-25T11:03:46;12.80;90.10
64654;DHT22;51065;48.884;12.598;2023-04-25T11:09:13;11.50;97.10
64654;DHT22;51065;48.884;12.598;2023-04-25T11:11:39;11.00;99.00
64654;DHT22;51065;48.884;12.598;2023-04-25T11:14:05;10.90;99.90
64654;DHT22;51065;48.884;12.598;2023-04-25T11:16:31;10.50;99.90
64654;DHT22;51065;48.884;12.598;2023-04-25T11:18:58;10.30;99.90
64654;DHT22;51065;48.884;12.598;2023-04-25T11:21:25;10.50;99.90
64654;DHT22;51065;48.884;12.598;2023-04-25T11:23:51;11.90;99.90
64654;DHT22;51065;48.884;12.598;2023-04-25T11:26:19;12.80;99.90
64654;DHT22;51065;48.884;12.598;2023-04-25T11:28:45;12.70;98.50
64654;DHT22;51065;48.884;12.598;2023-04-25T11:31:12;12.60;96.90
64654;DHT22;51065;48.884;12.598;2023-04-25T11:33:38;13.30;96.70
64654;DHT22;51065;48.884;12.598;2023-04-25T11:36:04;13.30;92.70
64654;DHT22;51065;48.884;12.598;2023-04-25T11:38:30;13.80;96.40
64654;DHT22;51065;48.884;12.598;2023-04-25T11:40:56;14.50;90.70
64654;DHT22;51065;48.884;12.598;2023-04-25T11:43:22;14.10;91.50
64654;DHT22;51065;48.884;12.598;2023-04-25T11:45:49;14.50;85.40
64654;DHT22;51065;48.884;12.598;2023-04-25T11:48:16;15.20;76.90
64654;DHT22;51065;48.884;12.598;2023-04-25T11:50:42;16.50;68.40
64654;DHT22;51065;48.884;12.598;2023-04-25T11:53:07;17.10;64.70
64654;DHT22;51065;48.884;12.598;2023-04-25T11:55:33;16.90;60.20
64654;DHT22;51065;48.884;12.598;2023-04-25T11:58:00;16.40;63.20
64654;DHT22;51065;48.884;12.598;2023-04-25T12:00:27;16.10;64.80
64654;DHT22;51065;48.884;12.598;2023-04-25T12:02:54;16.00;66.30
64654;DHT22;51065;48.884;12.598;2023-04-25T12:05:21;16.30;64.60
64654;DHT22;51065;48.884;12.598;2023-04-25T12:07:48;16.80;58.70
64654;DHT22;51065;48.884;12.598;2023-04-25T12:10:15;17.70;54.70
64654;DHT22;51065;48.884;12.598;2023-04-25T12:12:42;17.30;54.90
64654;DHT22;51065;48.884;12.598;2023-04-25T12:15:16;17.10;54.70
64654;DHT22;51065;48.884;12.598;2023-04-25T12:17:45;17.00;57.20
64654;DHT22;51065;48.884;12.598;2023-04-25T12:20:16;16.50;59.10
64654;DHT22;51065;48.884;12.598;2023-04-25T12:22:46;15.70;60.30
64654;DHT22;51065;48.884;12.598;2023-04-25T12:25:58;16.20;61.50
64654;DHT22;51065;48.884;12.598;2023-04-25T12:31:03;16.00;54.60
64654;DHT22;51065;48.884;12.598;2023-04-25T12:33:30;15.80;59.70
64654;DHT22;51065;48.884;12.598;2023-04-25T12:35:57;15.30;59.30
64654;DHT22;51065;48.884;12.598;2023-04-25T12:38:28;14.50;61.70
64654;DHT22;51065;48.884;12.598;2023-04-25T12:40:55;14.70;62.70
64654;DHT22;51065;48.884;12.598;2023-04-25T12:43:21;15.40;61.60
64654;DHT22;51065;48.884;12.598;2023-04-25T12:45:51;16.00;57.70
64654;DHT22;51065;48.884;12.598;2023-04-25T12:48:17;16.10;55.70
64654;DHT22;51065;48.884;12.598;2023-04-25T12:50:43;16.70;54.40
64654;DHT22;51065;48.884;12.598;2023-04-25T12:53:09;17.00;53.60
64654;DHT22;51065;48.884;12.598;2023-04-25T12:55:35;16.50;52.40
64654;DHT22;51065;48.884;12.598;2023-04-25T12:58:01;15.60;52.90
64654;DHT22;51065;48.884;12.598;2023-04-25T13:00:27;15.00;56.20
64654;DHT22;51065;48.884;12.598;2023-04-25T13:02:52;15.40;58.20
64654;DHT22;51065;48.884;12.598;2023-04-25T13:05:18;16.30;56.60
64654;DHT22;51065;48.884;12.598;2023-04-25T13:07:44;16.80;53.50
64654;DHT22;51065;48.884;12.598;2023-04-25T13:10:09;16.30;52.50
64654;DHT22;51065;48.884;12.598;2023-04-25T13:12:35;15.60;53.60
64654;DHT22;51065;48.884;12.598;2023-04-25T13:15:01;15.90;60.10
64654;DHT22;51065;48.884;12.598;2023-04-25T13:17:26;15.50;55.70
64654;DHT22;51065;48.884;12.598;2023-04-25T13:19:52;15.10;58.60
64654;DHT22;51065;48.884;12.598;2023-04-25T13:22:18;15.10;57.00
64654;DHT22;51065;48.884;12.598;2023-04-25T13:24:45;15.90;57.80
64654;DHT22;51065;48.884;12.598;2023-04-25T13:27:11;15.90;55.20
64654;DHT22;51065;48.884;12.598;2023-04-25T13:29:36;16.00;53.70
64654;DHT22;51065;48.884;12.598;2023-04-25T13:32:04;16.20;53.40
64654;DHT22;51065;48.884;12.598;2023-04-25T13:34:30;15.60;53.00
64654;DHT22;51065;48.884;12.598;2023-04-25T13:36:56;14.90;54.70
64654;DHT22;51065;48.884;12.598;2023-04-25T13:39:21;14.50;57.10
64654;DHT22;51065;48.884;12.598;2023-04-25T13:41:47;14.10;58.90
64654;DHT22;51065;48.884;12.598;2023-04-25T13:44:13;13.90;60.70
64654;DHT22;51065;48.884;12.598;2023-04-25T13:46:38;13.80;61.20
64654;DHT22;51065;48.884;12.598;2023-04-25T13:49:04;13.70;61.20
64654;DHT22;51065;48.884;12.598;2023-04-25T13:51:30;13.60;59.40
64654;DHT22;51065;48.884;12.598;2023-04-25T13:53:56;13.60;62.50
64654;DHT22;51065;48.884;12.598;2023-04-25T13:56:22;13.60;57.50
64654;DHT22;51065;48.884;12.598;2023-04-25T13:58:49;13.50;61.50
64654;DHT22;51065;48.884;12.598;2023-04-25T14:01:15;13.70;58.40
64654;DHT22;51065;48.884;12.598;2023-04-25T14:03:41;13.80;56.90
64654;DHT22;51065;48.884;12.598;2023-04-25T14:06:06;13.80;57.90
64654;DHT22;51065;48.884;12.598;2023-04-25T14:08:34;14.00;58.40
64654;DHT22;51065;48.884;12.598;2023-04-25T14:10:59;14.20;57.00
64654;DHT22;51065;48.884;12.598;2023-04-25T14:13:25;14.40;55.30
64654;DHT22;51065;48.884;12.598;2023-04-25T14:15:50;14.80;55.80
64654;DHT22;51065;48.884;12.598;2023-04-25T14:18:17;15.30;52.80
64654;DHT22;51065;48.884;12.598;2023-04-25T14:20:42;15.00;50.60
64654;DHT22;51065;48.884;12.598;2023-04-25T14:23:08;14.30;50.10
64654;DHT22;51065;48.884;12.598;2023-04-25T14:25:34;13.90;53.20
64654;DHT22;51065;48.884;12.598;2023-04-25T14:28:00;13.60;53.70
64654;DHT22;51065;48.884;12.598;2023-04-25T14:30:26;13.20;55.40
64654;DHT22;51065;48.884;12.598;2023-04-25T14:32:51;13.00;56.00
64654;DHT22;51065;48.884;12.598;2023-04-25T14:35:17;13.00;56.80
64654;DHT22;51065;48.884;12.598;2023-04-25T14:37:43;13.10;56.60
64654;DHT22;51065;48.884;12.598;2023-04-25T14:40:09;13.20;59.20
64654;DHT22;51065;48.884;12.598;2023-04-25T14:42:36;13.10;58.30
64654;DHT22;51065;48.884;12.598;2023-04-25T14:45:06;13.10;59.30
64654;DHT22;51065;48.884;12.598;2023-04-25T14:47:32;13.00;60.60
64654;DHT22;51065;48.884;12.598;2023-04-25T14:49:58;12.80;63.80
64654;DHT22;51065;48.884;12.598;2023-04-25T14:52:24;12.70;66.20
64654;DHT22;51065;48.884;12.598;2023-04-25T14:54:50;12.70;66.00
64654;DHT22;51065;48.884;12.598;2023-04-25T14:57:16;12.70;67.30
64654;DHT22;51065;48.884;12.598;2023-04-25T14:59:42;12.70;70.10
64654;DHT22;51065;48.884;12.598;2023-04-25T15:02:07;12.70;72.10
64654;DHT22;51065;48.884;12.598;2023-04-25T15:04:33;12.70;73.90
64654;DHT22;51065;48.884;12.598;2023-04-25T15:06:59;12.60;72.20
64654;DHT22;51065;48.884;12.598;2023-04-25T15:09:24;12.60;71.90
64654;DHT22;51065;48.884;12.598;2023-04-25T15:11:50;12.50;70.50
64654;DHT22;51065;48.884;12.598;2023-04-25T15:14:17;12.40;74.20
64654;DHT22;51065;48.884;12.598;2023-04-25T15:16:42;12.40;73.20
64654;DHT22;51065;48.884;12.598;2023-04-25T15:19:08;12.50;78.40
64654;DHT22;51065;48.884;12.598;2023-04-25T15:21:34;12.80;67.90
64654;DHT22;51065;48.884;12.598;2023-04-25T15:23:59;12.90;68.10
64654;DHT22;51065;48.884;12.598;2023-04-25T15:26:26;13.20;67.20
64654;DHT22;51065;48.884;12.598;2023-04-25T15:28:52;13.30;63.10
64654;DHT22;51065;48.884;12.598;2023-04-25T15:31:18;13.00;69.00
64654;DHT22;51065;48.884;12.598;2023-04-25T15:33:43;12.80;66.20
64654;DHT22;51065;48.884;12.598;2023-04-25T15:36:09;12.70;64.70